WXM80 ListenWXM80 Stop

You find our weather info also at:

UK Metoffice

WeatherCloud

Weather Underground

Northeastern Weather Network

AWEKAS

Citizen Weather Observer Program (CWOP)

HAMweather, WeatherForYou, PWS Weather


Weather Underground History page Text

Daily Summary for November 7, 2017 Units:  Both    English   Metric
« Previous Day
Next Day »
Daily Weekly Monthly Yearly Custom
  High: Low: Average:
Temperature: 50.4 °F /  10.2 °C 42.2 °F /  5.7 °C 46.5 °F /  8.1 °C
Dew Point: 42.9 °F /  6.1 °C 38.8 °F /  3.8 °C 41 °F /  5 °C
Humidity: 96 % 69 % 81 %
Wind Speed: 12.6 mph /  20.3 km/h - 6 mph /  9.7 km/h
Wind Gust: 20.7 mph /  33.3 km/h - -
Wind:- - ENE
Pressure: 30.23 in /  1023.6 hPa 29.92 in /  1013.1 hPa -
Precipitation: 0.07 in /  1.78 mm    
Historical Graphs
 
 
Tabular Data for November 7, 2017
Time Temperature Dew Point Pressure Wind Wind Speed Wind Gust Humidity Rainfall Rate (Hourly)
00:04 49.1 °F /  9.5 °C 42.5 °F /  5.8 °C 30.11 in /  1019.5 hPa NNE 8.4 mph /  13.5 km/h 13.0 mph /  20.9 km/h 78 % 0.00 in /  0 mm
00:09 49.0 °F /  9.4 °C 42.8 °F /  6 °C 30.11 in /  1019.5 hPa North 6.4 mph /  10.3 km/h 12.7 mph /  20.4 km/h 79 % 0.00 in /  0 mm
00:14 48.8 °F /  9.3 °C 42.6 °F /  5.9 °C 30.11 in /  1019.5 hPa NE 7.0 mph /  11.3 km/h 11.0 mph /  17.7 km/h 79 % 0.00 in /  0 mm
00:19 48.8 °F /  9.3 °C 42.2 °F /  5.7 °C 30.11 in /  1019.5 hPa NNE 5.2 mph /  8.4 km/h 6.9 mph /  11.1 km/h 78 % 0.00 in /  0 mm
00:24 48.7 °F /  9.3 °C 42.5 °F /  5.8 °C 30.11 in /  1019.5 hPa North 4.9 mph /  7.9 km/h 8.1 mph /  13 km/h 79 % 0.00 in /  0 mm
00:29 48.6 °F /  9.2 °C 42.0 °F /  5.6 °C 30.11 in /  1019.5 hPa North 7.5 mph /  12.1 km/h 11.5 mph /  18.5 km/h 78 % 0.00 in /  0 mm
00:34 48.6 °F /  9.2 °C 42.0 °F /  5.6 °C 30.11 in /  1019.5 hPa NE 7.5 mph /  12.1 km/h 11.5 mph /  18.5 km/h 78 % 0.00 in /  0 mm
00:39 48.5 °F /  9.2 °C 42.0 °F /  5.6 °C 30.11 in /  1019.5 hPa NNW 5.7 mph /  9.2 km/h 11.5 mph /  18.5 km/h 78 % 0.00 in /  0 mm
00:44 48.5 °F /  9.2 °C 42.0 °F /  5.6 °C 30.11 in /  1019.5 hPa NNE 7.8 mph /  12.6 km/h 13.8 mph /  22.2 km/h 78 % 0.00 in /  0 mm
00:49 48.4 °F /  9.1 °C 41.5 °F /  5.3 °C 30.11 in /  1019.5 hPa North 4.9 mph /  7.9 km/h 9.2 mph /  14.8 km/h 77 % 0.00 in /  0 mm
00:54 48.3 °F /  9.1 °C 41.8 °F /  5.4 °C 30.12 in /  1019.9 hPa NNE 5.8 mph /  9.3 km/h 10.4 mph /  16.7 km/h 78 % 0.00 in /  0 mm
00:59 48.3 °F /  9.1 °C 41.8 °F /  5.4 °C 30.12 in /  1019.9 hPa North 7.1 mph /  11.4 km/h 11.5 mph /  18.5 km/h 78 % 0.00 in /  0 mm
01:04 48.2 °F /  9 °C 41.3 °F /  5.2 °C 30.11 in /  1019.5 hPa NNW 8.3 mph /  13.4 km/h 11.5 mph /  18.5 km/h 77 % 0.00 in /  0 mm
01:09 48.2 °F /  9 °C 41.3 °F /  5.2 °C 30.12 in /  1019.9 hPa NNE 7.9 mph /  12.7 km/h 10.4 mph /  16.7 km/h 77 % 0.00 in /  0 mm
01:20 48.1 °F /  8.9 °C 41.2 °F /  5.1 °C 30.12 in /  1019.9 hPa NNE 5.7 mph /  9.2 km/h 11.5 mph /  18.5 km/h 77 % 0.00 in /  0 mm
01:25 48.1 °F /  8.9 °C 41.2 °F /  5.1 °C 30.12 in /  1019.9 hPa North 3.7 mph /  6 km/h 5.8 mph /  9.3 km/h 77 % 0.00 in /  0 mm
01:30 48.0 °F /  8.9 °C 40.8 °F /  4.9 °C 30.12 in /  1019.9 hPa NNE 5.1 mph /  8.2 km/h 12.7 mph /  20.4 km/h 76 % 0.00 in /  0 mm
01:35 47.9 °F /  8.8 °C 41.0 °F /  5 °C 30.12 in /  1019.9 hPa NNE 7.7 mph /  12.4 km/h 11.5 mph /  18.5 km/h 77 % 0.00 in /  0 mm
01:40 47.9 °F /  8.8 °C 40.7 °F /  4.8 °C 30.12 in /  1019.9 hPa North 7.3 mph /  11.7 km/h 11.5 mph /  18.5 km/h 76 % 0.00 in /  0 mm
01:45 47.8 °F /  8.8 °C 40.6 °F /  4.8 °C 30.12 in /  1019.9 hPa North 8.6 mph /  13.8 km/h 11.5 mph /  18.5 km/h 76 % 0.00 in /  0 mm
01:50 47.8 °F /  8.8 °C 40.6 °F /  4.8 °C 30.12 in /  1019.9 hPa North 8.3 mph /  13.4 km/h 11.5 mph /  18.5 km/h 76 % 0.00 in /  0 mm
01:55 47.7 °F /  8.7 °C 40.2 °F /  4.6 °C 30.12 in /  1019.9 hPa NNE 9.1 mph /  14.6 km/h 13.8 mph /  22.2 km/h 75 % 0.00 in /  0 mm
02:00 47.6 °F /  8.7 °C 40.1 °F /  4.5 °C 30.12 in /  1019.9 hPa NNW 5.1 mph /  8.2 km/h 15.0 mph /  24.1 km/h 75 % 0.00 in /  0 mm
02:05 47.6 °F /  8.7 °C 40.4 °F /  4.7 °C 30.12 in /  1019.9 hPa NNW 5.3 mph /  8.5 km/h 11.5 mph /  18.5 km/h 76 % 0.00 in /  0 mm
02:10 47.5 °F /  8.6 °C 40.3 °F /  4.6 °C 30.12 in /  1019.9 hPa NE 8.1 mph /  13 km/h 11.5 mph /  18.5 km/h 76 % 0.00 in /  0 mm
02:15 47.5 °F /  8.6 °C 40.6 °F /  4.8 °C 30.12 in /  1019.9 hPa NNW 7.1 mph /  11.4 km/h 10.4 mph /  16.7 km/h 77 % 0.00 in /  0 mm
02:20 47.4 °F /  8.6 °C 40.6 °F /  4.8 °C 30.12 in /  1019.9 hPa NNW 6.1 mph /  9.8 km/h 9.2 mph /  14.8 km/h 77 % 0.00 in /  0 mm
02:25 47.3 °F /  8.5 °C 40.5 °F /  4.7 °C 30.13 in /  1020.2 hPa North 5.7 mph /  9.2 km/h 11.5 mph /  18.5 km/h 77 % 0.00 in /  0 mm
02:30 47.3 °F /  8.5 °C 40.5 °F /  4.7 °C 30.12 in /  1019.9 hPa North 5.2 mph /  8.4 km/h 8.1 mph /  13 km/h 77 % 0.00 in /  0 mm
02:35 47.2 °F /  8.4 °C 40.7 °F /  4.8 °C 30.12 in /  1019.9 hPa NNE 3.6 mph /  5.8 km/h 6.9 mph /  11.1 km/h 78 % 0.00 in /  0 mm
02:40 47.2 °F /  8.4 °C 41.0 °F /  5 °C 30.13 in /  1020.2 hPa North 5.1 mph /  8.2 km/h 8.1 mph /  13 km/h 79 % 0.00 in /  0 mm
02:45 47.0 °F /  8.3 °C 40.8 °F /  4.9 °C 30.13 in /  1020.2 hPa NNE 8.6 mph /  13.8 km/h 12.0 mph /  19.3 km/h 79 % 0.00 in /  0 mm
02:50 46.9 °F /  8.3 °C 40.4 °F /  4.7 °C 30.13 in /  1020.2 hPa North 7.2 mph /  11.6 km/h 15.0 mph /  24.1 km/h 78 % 0.00 in /  0 mm
02:55 46.9 °F /  8.3 °C 40.4 °F /  4.7 °C 30.13 in /  1020.2 hPa NNE 6.7 mph /  10.8 km/h 12.0 mph /  19.3 km/h 78 % 0.00 in /  0 mm
03:00 46.8 °F /  8.2 °C 40.3 °F /  4.6 °C 30.14 in /  1020.5 hPa North 6.8 mph /  10.9 km/h 17.3 mph /  27.8 km/h 78 % 0.00 in /  0 mm
03:05 46.7 °F /  8.2 °C 40.2 °F /  4.6 °C 30.14 in /  1020.5 hPa NNE 6.8 mph /  10.9 km/h 11.5 mph /  18.5 km/h 78 % 0.00 in /  0 mm
03:10 46.5 °F /  8.1 °C 39.7 °F /  4.3 °C 30.14 in /  1020.5 hPa NNE 8.6 mph /  13.8 km/h 11.5 mph /  18.5 km/h 77 % 0.00 in /  0 mm
03:15 46.4 °F /  8 °C 39.6 °F /  4.2 °C 30.14 in /  1020.5 hPa NNE 7.1 mph /  11.4 km/h 12.7 mph /  20.4 km/h 77 % 0.00 in /  0 mm
03:20 46.3 °F /  7.9 °C 39.8 °F /  4.3 °C 30.14 in /  1020.5 hPa NNE 8.3 mph /  13.4 km/h 16.1 mph /  25.9 km/h 78 % 0.00 in /  0 mm
03:25 46.2 °F /  7.9 °C 39.7 °F /  4.3 °C 30.15 in /  1020.9 hPa NNE 4.3 mph /  6.9 km/h 6.9 mph /  11.1 km/h 78 % 0.00 in /  0 mm
03:30 46.1 °F /  7.8 °C 39.6 °F /  4.2 °C 30.15 in /  1020.9 hPa North 6.4 mph /  10.3 km/h 12.0 mph /  19.3 km/h 78 % 0.00 in /  0 mm
03:35 46.0 °F /  7.8 °C 39.5 °F /  4.2 °C 30.15 in /  1020.9 hPa North 5.5 mph /  8.9 km/h 9.2 mph /  14.8 km/h 78 % 0.00 in /  0 mm
03:40 45.9 °F /  7.7 °C 39.8 °F /  4.3 °C 30.15 in /  1020.9 hPa North 8.0 mph /  12.9 km/h 10.4 mph /  16.7 km/h 79 % 0.00 in /  0 mm
03:45 45.9 °F /  7.7 °C 39.8 °F /  4.3 °C 30.15 in /  1020.9 hPa NNW 8.1 mph /  13 km/h 13.8 mph /  22.2 km/h 79 % 0.00 in /  0 mm
03:50 45.8 °F /  7.7 °C 39.7 °F /  4.3 °C 30.15 in /  1020.9 hPa NNE 7.5 mph /  12.1 km/h 12.7 mph /  20.4 km/h 79 % 0.00 in /  0 mm
03:56 45.7 °F /  7.6 °C 39.6 °F /  4.2 °C 30.16 in /  1021.2 hPa NNE 5.7 mph /  9.2 km/h 11.5 mph /  18.5 km/h 79 % 0.00 in /  0 mm
04:01 45.6 °F /  7.6 °C 39.1 °F /  3.9 °C 30.16 in /  1021.2 hPa NW 4.4 mph /  7.1 km/h 9.2 mph /  14.8 km/h 78 % 0.00 in /  0 mm
04:06 45.5 °F /  7.5 °C 39.4 °F /  4.1 °C 30.16 in /  1021.2 hPa NNE 8.7 mph /  14 km/h 12.7 mph /  20.4 km/h 79 % 0.00 in /  0 mm
04:11 45.5 °F /  7.5 °C 39.4 °F /  4.1 °C 30.17 in /  1021.6 hPa NE 9.8 mph /  15.8 km/h 15.0 mph /  24.1 km/h 79 % 0.00 in /  0 mm
04:16 45.4 °F /  7.4 °C 39.3 °F /  4.1 °C 30.16 in /  1021.2 hPa North 4.8 mph /  7.7 km/h 9.2 mph /  14.8 km/h 79 % 0.00 in /  0 mm
04:21 45.4 °F /  7.4 °C 39.3 °F /  4.1 °C 30.17 in /  1021.6 hPa North 8.0 mph /  12.9 km/h 13.0 mph /  20.9 km/h 79 % 0.00 in /  0 mm
04:26 45.3 °F /  7.4 °C 38.8 °F /  3.8 °C 30.17 in /  1021.6 hPa North 6.0 mph /  9.7 km/h 16.0 mph /  25.7 km/h 78 % 0.00 in /  0 mm
04:31 45.2 °F /  7.3 °C 39.1 °F /  3.9 °C 30.17 in /  1021.6 hPa North 9.4 mph /  15.1 km/h 12.0 mph /  19.3 km/h 79 % 0.00 in /  0 mm
04:35 45.2 °F /  7.3 °C 39.1 °F /  3.9 °C 30.17 in /  1021.6 hPa NE 5.1 mph /  8.2 km/h 11.5 mph /  18.5 km/h 79 % 0.00 in /  0 mm
04:40 45.1 °F /  7.3 °C 39.3 °F /  4.1 °C 30.17 in /  1021.6 hPa North 5.0 mph /  8 km/h 9.2 mph /  14.8 km/h 80 % 0.00 in /  0 mm
04:46 45.1 °F /  7.3 °C 39.3 °F /  4.1 °C 30.17 in /  1021.6 hPa North 7.0 mph /  11.3 km/h 13.0 mph /  20.9 km/h 80 % 0.00 in /  0 mm
04:51 45.0 °F /  7.2 °C 38.9 °F /  3.8 °C 30.17 in /  1021.6 hPa North 6.2 mph /  10 km/h 9.2 mph /  14.8 km/h 79 % 0.00 in /  0 mm
04:56 45.0 °F /  7.2 °C 38.9 °F /  3.8 °C 30.17 in /  1021.6 hPa North 7.0 mph /  11.3 km/h 13.0 mph /  20.9 km/h 79 % 0.00 in /  0 mm
05:01 45.0 °F /  7.2 °C 38.9 °F /  3.8 °C 30.18 in /  1021.9 hPa North 6.8 mph /  10.9 km/h 10.4 mph /  16.7 km/h 79 % 0.00 in /  0 mm
05:06 45.0 °F /  7.2 °C 38.9 °F /  3.8 °C 30.18 in /  1021.9 hPa NNE 7.0 mph /  11.3 km/h 13.0 mph /  20.9 km/h 79 % 0.00 in /  0 mm
05:11 45.0 °F /  7.2 °C 39.2 °F /  4 °C 30.17 in /  1021.6 hPa NNE 7.0 mph /  11.3 km/h 14.0 mph /  22.5 km/h 80 % 0.00 in /  0 mm
05:16 45.0 °F /  7.2 °C 39.2 °F /  4 °C 30.17 in /  1021.6 hPa NNE 9.0 mph /  14.5 km/h 13.0 mph /  20.9 km/h 80 % 0.00 in /  0 mm
05:21 45.0 °F /  7.2 °C 38.9 °F /  3.8 °C 30.17 in /  1021.6 hPa NNE 6.9 mph /  11.1 km/h 11.5 mph /  18.5 km/h 79 % 0.00 in /  0 mm
05:25 44.9 °F /  7.2 °C 39.1 °F /  3.9 °C 30.17 in /  1021.6 hPa North 7.1 mph /  11.4 km/h 11.5 mph /  18.5 km/h 80 % 0.00 in /  0 mm
05:30 44.9 °F /  7.2 °C 39.1 °F /  3.9 °C 30.17 in /  1021.6 hPa NNE 7.0 mph /  11.3 km/h 10.4 mph /  16.7 km/h 80 % 0.00 in /  0 mm
05:35 44.8 °F /  7.1 °C 39.0 °F /  3.9 °C 30.17 in /  1021.6 hPa NE 6.1 mph /  9.8 km/h 12.7 mph /  20.4 km/h 80 % 0.00 in /  0 mm
05:40 44.8 °F /  7.1 °C 39.0 °F /  3.9 °C 30.17 in /  1021.6 hPa NE 6.9 mph /  11.1 km/h 10.4 mph /  16.7 km/h 80 % 0.00 in /  0 mm
05:45 44.8 °F /  7.1 °C 39.0 °F /  3.9 °C 30.17 in /  1021.6 hPa East 2.9 mph /  4.7 km/h 6.9 mph /  11.1 km/h 80 % 0.00 in /  0 mm
05:51 44.7 °F /  7.1 °C 38.9 °F /  3.8 °C 30.17 in /  1021.6 hPa NNE 7.0 mph /  11.3 km/h 12.0 mph /  19.3 km/h 80 % 0.00 in /  0 mm
05:56 44.7 °F /  7.1 °C 38.9 °F /  3.8 °C 30.17 in /  1021.6 hPa NNE 3.0 mph /  4.8 km/h 13.0 mph /  20.9 km/h 80 % 0.00 in /  0 mm
06:01 44.7 °F /  7.1 °C 39.2 °F /  4 °C 30.18 in /  1021.9 hPa NNW 6.1 mph /  9.8 km/h 9.0 mph /  14.5 km/h 81 % 0.00 in /  0 mm
06:06 44.7 °F /  7.1 °C 39.2 °F /  4 °C 30.18 in /  1021.9 hPa NNE 5.0 mph /  8 km/h 12.0 mph /  19.3 km/h 81 % 0.00 in /  0 mm
06:11 44.7 °F /  7.1 °C 39.2 °F /  4 °C 30.18 in /  1021.9 hPa NNE 6.0 mph /  9.7 km/h 12.0 mph /  19.3 km/h 81 % 0.00 in /  0 mm
06:16 44.7 °F /  7.1 °C 39.2 °F /  4 °C 30.18 in /  1021.9 hPa NNE 2.3 mph /  3.7 km/h 8.1 mph /  13 km/h 81 % 0.00 in /  0 mm
06:21 44.7 °F /  7.1 °C 39.2 °F /  4 °C 30.18 in /  1021.9 hPa NE 4.5 mph /  7.2 km/h 10.4 mph /  16.7 km/h 81 % 0.00 in /  0 mm
06:26 44.7 °F /  7.1 °C 39.2 °F /  4 °C 30.18 in /  1021.9 hPa North 2.4 mph /  3.9 km/h 9.2 mph /  14.8 km/h 81 % 0.00 in /  0 mm
06:36 44.7 °F /  7.1 °C 39.2 °F /  4 °C 30.18 in /  1021.9 hPa NNE 3.4 mph /  5.5 km/h 6.9 mph /  11.1 km/h 81 % 0.00 in /  0 mm
06:41 44.7 °F /  7.1 °C 39.5 °F /  4.2 °C 30.18 in /  1021.9 hPa NNE 6.9 mph /  11.1 km/h 10.4 mph /  16.7 km/h 82 % 0.00 in /  0 mm
06:46 44.8 °F /  7.1 °C 39.6 °F /  4.2 °C 30.18 in /  1021.9 hPa ENE 6.1 mph /  9.8 km/h 11.5 mph /  18.5 km/h 82 % 0.00 in /  0 mm
06:51 44.8 °F /  7.1 °C 39.3 °F /  4.1 °C 30.18 in /  1021.9 hPa NNE 4.6 mph /  7.4 km/h 9.2 mph /  14.8 km/h 81 % 0.00 in /  0 mm
06:56 44.9 °F /  7.2 °C 39.4 °F /  4.1 °C 30.19 in /  1022.2 hPa NNE 6.9 mph /  11.1 km/h 11.5 mph /  18.5 km/h 81 % 0.00 in /  0 mm
07:01 45.0 °F /  7.2 °C 39.5 °F /  4.2 °C 30.19 in /  1022.2 hPa NNE 4.6 mph /  7.4 km/h 11.5 mph /  18.5 km/h 81 % 0.00 in /  0 mm
07:06 45.1 °F /  7.3 °C 39.6 °F /  4.2 °C 30.20 in /  1022.6 hPa NE 4.1 mph /  6.6 km/h 11.5 mph /  18.5 km/h 81 % 0.00 in /  0 mm
07:11 45.1 °F /  7.3 °C 39.6 °F /  4.2 °C 30.20 in /  1022.6 hPa NE 4.3 mph /  6.9 km/h 13.8 mph /  22.2 km/h 81 % 0.00 in /  0 mm
07:16 45.2 °F /  7.3 °C 39.7 °F /  4.3 °C 30.19 in /  1022.2 hPa NE 4.6 mph /  7.4 km/h 6.9 mph /  11.1 km/h 81 % 0.00 in /  0 mm
07:21 45.3 °F /  7.4 °C 39.8 °F /  4.3 °C 30.19 in /  1022.2 hPa NNE 4.1 mph /  6.6 km/h 9.2 mph /  14.8 km/h 81 % 0.00 in /  0 mm
07:31 45.4 °F /  7.4 °C 40.2 °F /  4.6 °C 30.19 in /  1022.2 hPa NNE 3.3 mph /  5.3 km/h 4.6 mph /  7.4 km/h 82 % 0.00 in /  0 mm
07:36 45.5 °F /  7.5 °C 40.0 °F /  4.4 °C 30.19 in /  1022.2 hPa ENE 8.5 mph /  13.7 km/h 13.8 mph /  22.2 km/h 81 % 0.00 in /  0 mm
07:41 45.6 °F /  7.6 °C 39.8 °F /  4.3 °C 30.19 in /  1022.2 hPa ENE 6.9 mph /  11.1 km/h 10.4 mph /  16.7 km/h 80 % 0.00 in /  0 mm
07:46 45.7 °F /  7.6 °C 39.6 °F /  4.2 °C 30.20 in /  1022.6 hPa ENE 5.8 mph /  9.3 km/h 11.5 mph /  18.5 km/h 79 % 0.00 in /  0 mm
07:51 45.8 °F /  7.7 °C 40.0 °F /  4.4 °C 30.20 in /  1022.6 hPa NE 3.9 mph /  6.3 km/h 9.0 mph /  14.5 km/h 80 % 0.00 in /  0 mm
07:56 45.8 °F /  7.7 °C 40.0 °F /  4.4 °C 30.20 in /  1022.6 hPa NE 4.6 mph /  7.4 km/h 6.9 mph /  11.1 km/h 80 % 0.00 in /  0 mm
08:06 46.0 °F /  7.8 °C 40.5 °F /  4.7 °C 30.21 in /  1022.9 hPa NE 7.4 mph /  11.9 km/h 10.4 mph /  16.7 km/h 81 % 0.00 in /  0 mm
08:11 46.0 °F /  7.8 °C 40.5 °F /  4.7 °C 30.22 in /  1023.2 hPa North 6.9 mph /  11.1 km/h 10.4 mph /  16.7 km/h 81 % 0.00 in /  0 mm
08:16 46.1 °F /  7.8 °C 40.3 °F /  4.6 °C 30.21 in /  1022.9 hPa ENE 8.5 mph /  13.7 km/h 12.7 mph /  20.4 km/h 80 % 0.00 in /  0 mm
08:21 46.1 °F /  7.8 °C 40.3 °F /  4.6 °C 30.21 in /  1022.9 hPa ENE 6.0 mph /  9.7 km/h 10.4 mph /  16.7 km/h 80 % 0.00 in /  0 mm
08:26 46.3 °F /  7.9 °C 40.8 °F /  4.9 °C 30.21 in /  1022.9 hPa ENE 6.7 mph /  10.8 km/h 11.5 mph /  18.5 km/h 81 % 0.00 in /  0 mm
08:31 46.4 °F /  8 °C 41.2 °F /  5.1 °C 30.22 in /  1023.2 hPa NE 8.2 mph /  13.2 km/h 13.8 mph /  22.2 km/h 82 % 0.00 in /  0 mm
08:36 46.4 °F /  8 °C 40.9 °F /  4.9 °C 30.21 in /  1022.9 hPa ENE 7.4 mph /  11.9 km/h 11.5 mph /  18.5 km/h 81 % 0.00 in /  0 mm
08:41 46.5 °F /  8.1 °C 41.0 °F /  5 °C 30.22 in /  1023.2 hPa ESE 5.6 mph /  9 km/h 11.5 mph /  18.5 km/h 81 % 0.00 in /  0 mm
08:46 46.7 °F /  8.2 °C 41.2 °F /  5.1 °C 30.21 in /  1022.9 hPa NE 4.5 mph /  7.2 km/h 11.5 mph /  18.5 km/h 81 % 0.00 in /  0 mm
08:51 46.9 °F /  8.3 °C 41.1 °F /  5.1 °C 30.21 in /  1022.9 hPa NNE 6.5 mph /  10.5 km/h 10.4 mph /  16.7 km/h 80 % 0.00 in /  0 mm
08:56 47.1 °F /  8.4 °C 41.2 °F /  5.1 °C 30.20 in /  1022.6 hPa NNE 3.1 mph /  5 km/h 4.6 mph /  7.4 km/h 80 % 0.00 in /  0 mm
09:01 47.2 °F /  8.4 °C 41.0 °F /  5 °C 30.20 in /  1022.6 hPa East 5.3 mph /  8.5 km/h 8.1 mph /  13 km/h 79 % 0.00 in /  0 mm
09:06 47.1 °F /  8.4 °C 40.6 °F /  4.8 °C 30.21 in /  1022.9 hPa ENE 7.9 mph /  12.7 km/h 11.5 mph /  18.5 km/h 78 % 0.00 in /  0 mm
09:11 47.1 °F /  8.4 °C 40.6 °F /  4.8 °C 30.22 in /  1023.2 hPa NE 5.9 mph /  9.5 km/h 10.4 mph /  16.7 km/h 78 % 0.00 in /  0 mm
09:16 47.2 °F /  8.4 °C 41.0 °F /  5 °C 30.21 in /  1022.9 hPa ENE 6.6 mph /  10.6 km/h 10.4 mph /  16.7 km/h 79 % 0.00 in /  0 mm
09:21 47.4 °F /  8.6 °C 41.2 °F /  5.1 °C 30.22 in /  1023.2 hPa North 3.2 mph /  5.1 km/h 6.9 mph /  11.1 km/h 79 % 0.00 in /  0 mm
09:26 47.7 °F /  8.7 °C 41.5 °F /  5.3 °C 30.21 in /  1022.9 hPa NNE 3.1 mph /  5 km/h 5.8 mph /  9.3 km/h 79 % 0.00 in /  0 mm
09:31 47.9 °F /  8.8 °C 41.4 °F /  5.2 °C 30.21 in /  1022.9 hPa North 4.0 mph /  6.4 km/h 9.2 mph /  14.8 km/h 78 % 0.00 in /  0 mm
09:36 47.9 °F /  8.8 °C 40.7 °F /  4.8 °C 30.22 in /  1023.2 hPa NE 5.3 mph /  8.5 km/h 9.2 mph /  14.8 km/h 76 % 0.00 in /  0 mm
09:41 47.9 °F /  8.8 °C 40.7 °F /  4.8 °C 30.23 in /  1023.6 hPa NW 3.0 mph /  4.8 km/h 9.2 mph /  14.8 km/h 76 % 0.00 in /  0 mm
09:46 48.0 °F /  8.9 °C 40.8 °F /  4.9 °C 30.22 in /  1023.2 hPa ENE 6.4 mph /  10.3 km/h 10.4 mph /  16.7 km/h 76 % 0.00 in /  0 mm
09:51 48.1 °F /  8.9 °C 41.2 °F /  5.1 °C 30.23 in /  1023.6 hPa NE 1.5 mph /  2.4 km/h 3.5 mph /  5.6 km/h 77 % 0.00 in /  0 mm
09:57 48.4 °F /  9.1 °C 41.5 °F /  5.3 °C 30.22 in /  1023.2 hPa NE 4.2 mph /  6.8 km/h 8.1 mph /  13 km/h 77 % 0.00 in /  0 mm
10:02 48.6 °F /  9.2 °C 41.7 °F /  5.4 °C 30.22 in /  1023.2 hPa NNE 3.2 mph /  5.1 km/h 4.6 mph /  7.4 km/h 77 % 0.00 in /  0 mm
10:07 49.0 °F /  9.4 °C 42.1 °F /  5.6 °C 30.21 in /  1022.9 hPa ENE 3.2 mph /  5.1 km/h 6.9 mph /  11.1 km/h 77 % 0.00 in /  0 mm
10:12 49.2 °F /  9.6 °C 41.3 °F /  5.2 °C 30.21 in /  1022.9 hPa NNE 3.3 mph /  5.3 km/h 5.8 mph /  9.3 km/h 74 % 0.00 in /  0 mm
10:17 49.4 °F /  9.7 °C 41.8 °F /  5.4 °C 30.21 in /  1022.9 hPa ENE 4.8 mph /  7.7 km/h 8.1 mph /  13 km/h 75 % 0.00 in /  0 mm
10:22 49.8 °F /  9.9 °C 42.2 °F /  5.7 °C 30.21 in /  1022.9 hPa North 4.9 mph /  7.9 km/h 9.2 mph /  14.8 km/h 75 % 0.00 in /  0 mm
10:27 50.1 °F /  10.1 °C 41.8 °F /  5.4 °C 30.21 in /  1022.9 hPa NNE 2.9 mph /  4.7 km/h 7.0 mph /  11.3 km/h 73 % 0.00 in /  0 mm
10:32 50.3 °F /  10.2 °C 42.3 °F /  5.7 °C 30.20 in /  1022.6 hPa NNE 7.1 mph /  11.4 km/h 10.4 mph /  16.7 km/h 74 % 0.00 in /  0 mm
10:37 50.3 °F /  10.2 °C 42.0 °F /  5.6 °C 30.20 in /  1022.6 hPa NE 2.5 mph /  4 km/h 6.9 mph /  11.1 km/h 73 % 0.00 in /  0 mm
10:42 50.2 °F /  10.1 °C 41.9 °F /  5.5 °C 30.20 in /  1022.6 hPa NNE 2.7 mph /  4.3 km/h 8.1 mph /  13 km/h 73 % 0.00 in /  0 mm
10:47 50.1 °F /  10.1 °C 41.8 °F /  5.4 °C 30.20 in /  1022.6 hPa North 4.5 mph /  7.2 km/h 8.1 mph /  13 km/h 73 % 0.00 in /  0 mm
10:52 50.1 °F /  10.1 °C 42.1 °F /  5.6 °C 30.20 in /  1022.6 hPa NE 4.6 mph /  7.4 km/h 9.2 mph /  14.8 km/h 74 % 0.00 in /  0 mm
10:58 50.0 °F /  10 °C 41.7 °F /  5.4 °C 30.20 in /  1022.6 hPa NNE 2.1 mph /  3.4 km/h 6.9 mph /  11.1 km/h 73 % 0.00 in /  0 mm
11:03 49.9 °F /  9.9 °C 41.2 °F /  5.1 °C 30.20 in /  1022.6 hPa NE 0.8 mph /  1.3 km/h 6.9 mph /  11.1 km/h 72 % 0.00 in /  0 mm
11:08 49.8 °F /  9.9 °C 41.1 °F /  5.1 °C 30.19 in /  1022.2 hPa ENE 3.4 mph /  5.5 km/h 5.8 mph /  9.3 km/h 72 % 0.00 in /  0 mm
11:13 49.8 °F /  9.9 °C 41.1 °F /  5.1 °C 30.20 in /  1022.6 hPa NE 1.6 mph /  2.6 km/h 6.9 mph /  11.1 km/h 72 % 0.00 in /  0 mm
11:18 49.9 °F /  9.9 °C 41.2 °F /  5.1 °C 30.20 in /  1022.6 hPa NNE 3.9 mph /  6.3 km/h 6.9 mph /  11.1 km/h 72 % 0.00 in /  0 mm
11:23 49.9 °F /  9.9 °C 40.9 °F /  4.9 °C 30.20 in /  1022.6 hPa ENE 1.3 mph /  2.1 km/h 3.0 mph /  4.8 km/h 71 % 0.00 in /  0 mm
11:28 50.0 °F /  10 °C 41.7 °F /  5.4 °C 30.20 in /  1022.6 hPa North 4.3 mph /  6.9 km/h 6.9 mph /  11.1 km/h 73 % 0.00 in /  0 mm
11:33 50.0 °F /  10 °C 41.3 °F /  5.2 °C 30.20 in /  1022.6 hPa NE 2.2 mph /  3.5 km/h 6.9 mph /  11.1 km/h 72 % 0.00 in /  0 mm
11:38 50.0 °F /  10 °C 41.3 °F /  5.2 °C 30.20 in /  1022.6 hPa NNE 4.6 mph /  7.4 km/h 8.1 mph /  13 km/h 72 % 0.00 in /  0 mm
11:43 50.1 °F /  10.1 °C 41.1 °F /  5.1 °C 30.19 in /  1022.2 hPa NNE 6.0 mph /  9.7 km/h 8.1 mph /  13 km/h 71 % 0.00 in /  0 mm
11:48 50.1 °F /  10.1 °C 41.8 °F /  5.4 °C 30.18 in /  1021.9 hPa NE 2.2 mph /  3.5 km/h 4.6 mph /  7.4 km/h 73 % 0.00 in /  0 mm
11:53 50.1 °F /  10.1 °C 41.4 °F /  5.2 °C 30.19 in /  1022.2 hPa North 2.0 mph /  3.2 km/h 8.1 mph /  13 km/h 72 % 0.00 in /  0 mm
11:58 50.1 °F /  10.1 °C 41.4 °F /  5.2 °C 30.19 in /  1022.2 hPa NE 4.3 mph /  6.9 km/h 6.0 mph /  9.7 km/h 72 % 0.00 in /  0 mm
12:03 50.2 °F /  10.1 °C 41.5 °F /  5.3 °C 30.18 in /  1021.9 hPa North 4.0 mph /  6.4 km/h 6.9 mph /  11.1 km/h 72 % 0.00 in /  0 mm
12:08 50.2 °F /  10.1 °C 41.5 °F /  5.3 °C 30.18 in /  1021.9 hPa NNE 4.3 mph /  6.9 km/h 5.0 mph /  8 km/h 72 % 0.00 in /  0 mm
12:13 50.2 °F /  10.1 °C 41.5 °F /  5.3 °C 30.19 in /  1022.2 hPa NNE 4.4 mph /  7.1 km/h 6.0 mph /  9.7 km/h 72 % 0.00 in /  0 mm
12:18 50.2 °F /  10.1 °C 41.5 °F /  5.3 °C 30.19 in /  1022.2 hPa North 3.2 mph /  5.1 km/h 6.0 mph /  9.7 km/h 72 % 0.00 in /  0 mm
12:23 50.2 °F /  10.1 °C 41.5 °F /  5.3 °C 30.19 in /  1022.2 hPa NNE 3.0 mph /  4.8 km/h 4.6 mph /  7.4 km/h 72 % 0.00 in /  0 mm
12:28 50.2 °F /  10.1 °C 41.5 °F /  5.3 °C 30.19 in /  1022.2 hPa NNE 6.3 mph /  10.1 km/h 8.0 mph /  12.9 km/h 72 % 0.00 in /  0 mm
12:33 50.1 °F /  10.1 °C 41.4 °F /  5.2 °C 30.19 in /  1022.2 hPa NNE 3.9 mph /  6.3 km/h 6.9 mph /  11.1 km/h 72 % 0.00 in /  0 mm
12:38 50.1 °F /  10.1 °C 41.4 °F /  5.2 °C 30.19 in /  1022.2 hPa NNE 2.1 mph /  3.4 km/h 7.0 mph /  11.3 km/h 72 % 0.00 in /  0 mm
12:44 50.1 °F /  10.1 °C 41.4 °F /  5.2 °C 30.19 in /  1022.2 hPa NNE 4.7 mph /  7.6 km/h 6.9 mph /  11.1 km/h 72 % 0.00 in /  0 mm
12:49 50.2 °F /  10.1 °C 41.5 °F /  5.3 °C 30.18 in /  1021.9 hPa NNW 4.9 mph /  7.9 km/h 8.1 mph /  13 km/h 72 % 0.00 in /  0 mm
12:54 50.3 °F /  10.2 °C 41.6 °F /  5.3 °C 30.18 in /  1021.9 hPa NNE 4.5 mph /  7.2 km/h 9.2 mph /  14.8 km/h 72 % 0.00 in /  0 mm
12:59 50.4 °F /  10.2 °C 41.3 °F /  5.2 °C 30.18 in /  1021.9 hPa North 1.9 mph /  3.1 km/h 8.1 mph /  13 km/h 71 % 0.00 in /  0 mm
13:04 50.4 °F /  10.2 °C 41.7 °F /  5.4 °C 30.17 in /  1021.6 hPa North 4.4 mph /  7.1 km/h 6.9 mph /  11.1 km/h 72 % 0.00 in /  0 mm
13:09 50.4 °F /  10.2 °C 41.3 °F /  5.2 °C 30.17 in /  1021.6 hPa ENE 3.6 mph /  5.8 km/h 11.5 mph /  18.5 km/h 71 % 0.00 in /  0 mm
13:14 50.4 °F /  10.2 °C 41.7 °F /  5.4 °C 30.17 in /  1021.6 hPa NNE 4.7 mph /  7.6 km/h 9.2 mph /  14.8 km/h 72 % 0.00 in /  0 mm
13:19 50.3 °F /  10.2 °C 41.3 °F /  5.2 °C 30.17 in /  1021.6 hPa NE 3.1 mph /  5 km/h 9.0 mph /  14.5 km/h 71 % 0.00 in /  0 mm
13:24 50.3 °F /  10.2 °C 41.3 °F /  5.2 °C 30.17 in /  1021.6 hPa NNE 4.9 mph /  7.9 km/h 11.5 mph /  18.5 km/h 71 % 0.00 in /  0 mm
13:29 50.2 °F /  10.1 °C 41.2 °F /  5.1 °C 30.17 in /  1021.6 hPa NE 2.6 mph /  4.2 km/h 4.6 mph /  7.4 km/h 71 % 0.00 in /  0 mm
13:34 50.1 °F /  10.1 °C 41.4 °F /  5.2 °C 30.16 in /  1021.2 hPa ENE 2.7 mph /  4.3 km/h 5.0 mph /  8 km/h 72 % 0.00 in /  0 mm
13:39 50.1 °F /  10.1 °C 41.1 °F /  5.1 °C 30.14 in /  1020.5 hPa ENE 4.4 mph /  7.1 km/h 8.1 mph /  13 km/h 71 % 0.00 in /  0 mm
13:44 50.1 °F /  10.1 °C 41.1 °F /  5.1 °C 30.14 in /  1020.5 hPa NNE 4.4 mph /  7.1 km/h 9.2 mph /  14.8 km/h 71 % 0.00 in /  0 mm
13:49 50.1 °F /  10.1 °C 41.1 °F /  5.1 °C 30.13 in /  1020.2 hPa NNE 4.6 mph /  7.4 km/h 9.2 mph /  14.8 km/h 71 % 0.00 in /  0 mm
13:54 50.1 °F /  10.1 °C 40.3 °F /  4.6 °C 30.13 in /  1020.2 hPa ENE 7.2 mph /  11.6 km/h 10.4 mph /  16.7 km/h 69 % 0.00 in /  0 mm
13:59 50.1 °F /  10.1 °C 41.1 °F /  5.1 °C 30.12 in /  1019.9 hPa ENE 6.5 mph /  10.5 km/h 11.5 mph /  18.5 km/h 71 % 0.00 in /  0 mm
14:04 50.1 °F /  10.1 °C 41.1 °F /  5.1 °C 30.10 in /  1019.2 hPa East 6.7 mph /  10.8 km/h 10.0 mph /  16.1 km/h 71 % 0.00 in /  0 mm
14:09 50.1 °F /  10.1 °C 40.7 °F /  4.8 °C 30.09 in /  1018.8 hPa ENE 9.1 mph /  14.6 km/h 12.7 mph /  20.4 km/h 70 % 0.00 in /  0 mm
14:14 50.2 °F /  10.1 °C 40.8 °F /  4.9 °C 30.09 in /  1018.8 hPa NNE 3.5 mph /  5.6 km/h 8.1 mph /  13 km/h 70 % 0.00 in /  0 mm
14:19 50.2 °F /  10.1 °C 41.2 °F /  5.1 °C 30.09 in /  1018.8 hPa ENE 7.6 mph /  12.2 km/h 11.5 mph /  18.5 km/h 71 % 0.00 in /  0 mm
14:24 50.3 °F /  10.2 °C 41.3 °F /  5.2 °C 30.10 in /  1019.2 hPa NNE 4.3 mph /  6.9 km/h 8.1 mph /  13 km/h 71 % 0.00 in /  0 mm
14:29 50.3 °F /  10.2 °C 41.6 °F /  5.3 °C 30.10 in /  1019.2 hPa ENE 3.7 mph /  6 km/h 9.2 mph /  14.8 km/h 72 % 0.00 in /  0 mm
14:34 50.3 °F /  10.2 °C 40.5 °F /  4.7 °C 30.12 in /  1019.9 hPa ENE 8.2 mph /  13.2 km/h 12.7 mph /  20.4 km/h 69 % 0.00 in /  0 mm
14:39 50.2 °F /  10.1 °C 40.4 °F /  4.7 °C 30.13 in /  1020.2 hPa ENE 4.6 mph /  7.4 km/h 5.8 mph /  9.3 km/h 69 % 0.00 in /  0 mm
14:44 50.2 °F /  10.1 °C 40.4 °F /  4.7 °C 30.13 in /  1020.2 hPa NE 6.6 mph /  10.6 km/h 9.2 mph /  14.8 km/h 69 % 0.00 in /  0 mm
14:49 50.1 °F /  10.1 °C 40.7 °F /  4.8 °C 30.14 in /  1020.5 hPa ENE 4.5 mph /  7.2 km/h 8.1 mph /  13 km/h 70 % 0.00 in /  0 mm
14:54 50.1 °F /  10.1 °C 40.7 °F /  4.8 °C 30.14 in /  1020.5 hPa NE 5.0 mph /  8 km/h 6.9 mph /  11.1 km/h 70 % 0.00 in /  0 mm
14:59 50.0 °F /  10 °C 40.6 °F /  4.8 °C 30.15 in /  1020.9 hPa ENE 2.7 mph /  4.3 km/h 9.2 mph /  14.8 km/h 70 % 0.00 in /  0 mm
15:04 49.9 °F /  9.9 °C 40.9 °F /  4.9 °C 30.15 in /  1020.9 hPa NE 3.2 mph /  5.1 km/h 5.8 mph /  9.3 km/h 71 % 0.00 in /  0 mm
15:09 49.9 °F /  9.9 °C 40.5 °F /  4.7 °C 30.16 in /  1021.2 hPa ENE 2.4 mph /  3.9 km/h 4.6 mph /  7.4 km/h 70 % 0.00 in /  0 mm
15:14 49.8 °F /  9.9 °C 40.4 °F /  4.7 °C 30.15 in /  1020.9 hPa NE 2.1 mph /  3.4 km/h 3.5 mph /  5.6 km/h 70 % 0.00 in /  0 mm
15:19 49.7 °F /  9.8 °C 40.7 °F /  4.8 °C 30.16 in /  1021.2 hPa ENE 1.5 mph /  2.4 km/h 3.5 mph /  5.6 km/h 71 % 0.00 in /  0 mm
15:24 49.7 °F /  9.8 °C 40.7 °F /  4.8 °C 30.17 in /  1021.6 hPa ENE 2.8 mph /  4.5 km/h 4.6 mph /  7.4 km/h 71 % 0.00 in /  0 mm
15:34 49.6 °F /  9.8 °C 40.6 °F /  4.8 °C 30.17 in /  1021.6 hPa North 4.9 mph /  7.9 km/h 6.0 mph /  9.7 km/h 71 % 0.00 in /  0 mm
15:39 49.5 °F /  9.7 °C 40.5 °F /  4.7 °C 30.16 in /  1021.2 hPa NE 1.5 mph /  2.4 km/h 4.0 mph /  6.4 km/h 71 % 0.00 in /  0 mm
15:44 49.4 °F /  9.7 °C 40.7 °F /  4.8 °C 30.16 in /  1021.2 hPa NE 2.0 mph /  3.2 km/h 6.0 mph /  9.7 km/h 72 % 0.00 in /  0 mm
15:55 49.2 °F /  9.6 °C 40.9 °F /  4.9 °C 30.16 in /  1021.2 hPa NNE 5.8 mph /  9.3 km/h 8.0 mph /  12.9 km/h 73 % 0.00 in /  0 mm
16:00 49.2 °F /  9.6 °C 41.3 °F /  5.2 °C 30.15 in /  1020.9 hPa ENE 3.1 mph /  5 km/h 5.8 mph /  9.3 km/h 74 % 0.00 in /  0 mm
16:05 49.1 °F /  9.5 °C 41.2 °F /  5.1 °C 30.15 in /  1020.9 hPa NNE 2.0 mph /  3.2 km/h 9.0 mph /  14.5 km/h 74 % 0.00 in /  0 mm
16:10 48.9 °F /  9.4 °C 41.0 °F /  5 °C 30.14 in /  1020.5 hPa NNE 5.2 mph /  8.4 km/h 10.4 mph /  16.7 km/h 74 % 0.00 in /  0 mm
16:15 48.8 °F /  9.3 °C 41.2 °F /  5.1 °C 30.14 in /  1020.5 hPa ENE 3.4 mph /  5.5 km/h 4.6 mph /  7.4 km/h 75 % 0.00 in /  0 mm
16:20 48.7 °F /  9.3 °C 41.5 °F /  5.3 °C 30.14 in /  1020.5 hPa North 5.6 mph /  9 km/h 9.2 mph /  14.8 km/h 76 % 0.00 in /  0 mm
16:25 48.6 °F /  9.2 °C 41.4 °F /  5.2 °C 30.14 in /  1020.5 hPa NNE 6.0 mph /  9.7 km/h 14.0 mph /  22.5 km/h 76 % 0.00 in /  0 mm
16:30 48.5 °F /  9.2 °C 41.3 °F /  5.2 °C 30.14 in /  1020.5 hPa NNE 5.7 mph /  9.2 km/h 8.1 mph /  13 km/h 76 % 0.00 in /  0 mm
16:35 48.5 °F /  9.2 °C 41.6 °F /  5.3 °C 30.14 in /  1020.5 hPa NNE 6.3 mph /  10.1 km/h 12.7 mph /  20.4 km/h 77 % 0.00 in /  0 mm
16:40 48.3 °F /  9.1 °C 41.4 °F /  5.2 °C 30.14 in /  1020.5 hPa NNE 7.1 mph /  11.4 km/h 11.5 mph /  18.5 km/h 77 % 0.00 in /  0 mm
16:45 48.1 °F /  8.9 °C 41.6 °F /  5.3 °C 30.14 in /  1020.5 hPa NNW 7.0 mph /  11.3 km/h 11.5 mph /  18.5 km/h 78 % 0.00 in /  0 mm
16:50 47.9 °F /  8.8 °C 41.4 °F /  5.2 °C 30.14 in /  1020.5 hPa NNE 6.0 mph /  9.7 km/h 12.0 mph /  19.3 km/h 78 % 0.00 in /  0 mm
16:55 47.7 °F /  8.7 °C 41.5 °F /  5.3 °C 30.15 in /  1020.9 hPa North 6.0 mph /  9.7 km/h 10.4 mph /  16.7 km/h 79 % 0.00 in /  0 mm
17:00 47.5 °F /  8.6 °C 41.6 °F /  5.3 °C 30.14 in /  1020.5 hPa NNE 4.7 mph /  7.6 km/h 11.5 mph /  18.5 km/h 80 % 0.00 in /  0 mm
17:05 47.2 °F /  8.4 °C 41.7 °F /  5.4 °C 30.14 in /  1020.5 hPa NE 6.2 mph /  10 km/h 12.7 mph /  20.4 km/h 81 % 0.00 in /  0 mm
17:10 47.0 °F /  8.3 °C 42.1 °F /  5.6 °C 30.14 in /  1020.5 hPa NNE 2.7 mph /  4.3 km/h 4.6 mph /  7.4 km/h 83 % 0.00 in /  0 mm
17:11 47.0 °F /  8.3 °C 42.1 °F /  5.6 °C 30.14 in /  1020.5 hPa North 5.0 mph /  8 km/h 9.2 mph /  14.8 km/h 83 % 0.00 in /  0 mm
17:16 46.8 °F /  8.2 °C 42.5 °F /  5.8 °C 30.14 in /  1020.5 hPa NE 4.4 mph /  7.1 km/h 6.9 mph /  11.1 km/h 85 % 0.00 in /  0 mm
17:21 46.5 °F /  8.1 °C 42.2 °F /  5.7 °C 30.13 in /  1020.2 hPa NE 4.7 mph /  7.6 km/h 9.2 mph /  14.8 km/h 85 % 0.00 in /  0 mm
17:26 46.3 °F /  7.9 °C 42.6 °F /  5.9 °C 30.13 in /  1020.2 hPa NE 4.3 mph /  6.9 km/h 11.5 mph /  18.5 km/h 87 % 0.00 in /  0 mm
17:31 46.0 °F /  7.8 °C 42.3 °F /  5.7 °C 30.13 in /  1020.2 hPa NNE 6.0 mph /  9.7 km/h 15.0 mph /  24.1 km/h 87 % 0.00 in /  0 mm
17:36 45.7 °F /  7.6 °C 42.6 °F /  5.9 °C 30.13 in /  1020.2 hPa North 9.8 mph /  15.8 km/h 15.0 mph /  24.1 km/h 89 % 0.00 in /  0 mm
17:41 45.5 °F /  7.5 °C 42.7 °F /  5.9 °C 30.12 in /  1019.9 hPa NNE 7.7 mph /  12.4 km/h 11.5 mph /  18.5 km/h 90 % 0.00 in /  0 mm
17:46 45.3 °F /  7.4 °C 42.8 °F /  6 °C 30.12 in /  1019.9 hPa NNE 7.6 mph /  12.2 km/h 13.8 mph /  22.2 km/h 91 % 0.00 in /  0 mm
17:51 45.2 °F /  7.3 °C 42.7 °F /  5.9 °C 30.12 in /  1019.9 hPa North 8.2 mph /  13.2 km/h 17.3 mph /  27.8 km/h 91 % 0.00 in /  0 mm
17:56 45.1 °F /  7.3 °C 42.9 °F /  6.1 °C 30.13 in /  1020.2 hPa North 12.6 mph /  20.3 km/h 19.6 mph /  31.5 km/h 92 % 0.00 in /  0 mm
18:01 44.9 °F /  7.2 °C 42.7 °F /  5.9 °C 30.13 in /  1020.2 hPa ENE 8.7 mph /  14 km/h 15.0 mph /  24.1 km/h 92 % 0.01 in /  0.25 mm
18:06 44.8 °F /  7.1 °C 42.6 °F /  5.9 °C 30.13 in /  1020.2 hPa North 9.3 mph /  15 km/h 13.8 mph /  22.2 km/h 92 % 0.01 in /  0.25 mm
18:11 44.7 °F /  7.1 °C 42.5 °F /  5.8 °C 30.13 in /  1020.2 hPa North 10.1 mph /  16.3 km/h 19.6 mph /  31.5 km/h 92 % 0.01 in /  0.25 mm
18:16 44.6 °F /  7 °C 42.4 °F /  5.8 °C 30.14 in /  1020.5 hPa NE 10.2 mph /  16.4 km/h 16.1 mph /  25.9 km/h 92 % 0.01 in /  0.25 mm
18:21 44.4 °F /  6.9 °C 42.2 °F /  5.7 °C 30.14 in /  1020.5 hPa NNE 9.7 mph /  15.6 km/h 15.0 mph /  24.1 km/h 92 % 0.01 in /  0.25 mm
18:26 44.2 °F /  6.8 °C 42.0 °F /  5.6 °C 30.15 in /  1020.9 hPa NE 9.9 mph /  15.9 km/h 13.0 mph /  20.9 km/h 92 % 0.01 in /  0.25 mm
18:31 44.1 °F /  6.7 °C 42.2 °F /  5.7 °C 30.15 in /  1020.9 hPa NNE 10.4 mph /  16.7 km/h 16.0 mph /  25.7 km/h 93 % 0.01 in /  0.25 mm
18:36 44.0 °F /  6.7 °C 42.1 °F /  5.6 °C 30.15 in /  1020.9 hPa North 9.8 mph /  15.8 km/h 13.8 mph /  22.2 km/h 93 % 0.01 in /  0.25 mm
18:41 43.9 °F /  6.6 °C 42.0 °F /  5.6 °C 30.15 in /  1020.9 hPa NNE 11.5 mph /  18.5 km/h 20.7 mph /  33.3 km/h 93 % 0.01 in /  0.25 mm
18:46 43.8 °F /  6.6 °C 41.9 °F /  5.5 °C 30.16 in /  1021.2 hPa North 8.2 mph /  13.2 km/h 17.3 mph /  27.8 km/h 93 % 0.01 in /  0.25 mm
18:51 43.8 °F /  6.6 °C 41.9 °F /  5.5 °C 30.16 in /  1021.2 hPa North 5.6 mph /  9 km/h 11.0 mph /  17.7 km/h 93 % 0.01 in /  0.25 mm
18:56 43.8 °F /  6.6 °C 41.9 °F /  5.5 °C 30.16 in /  1021.2 hPa NNE 5.9 mph /  9.5 km/h 11.5 mph /  18.5 km/h 93 % 0.01 in /  0.25 mm
19:01 43.8 °F /  6.6 °C 42.2 °F /  5.7 °C 30.17 in /  1021.6 hPa NNE 5.8 mph /  9.3 km/h 11.5 mph /  18.5 km/h 94 % 0.00 in /  0 mm
19:06 43.7 °F /  6.5 °C 42.1 °F /  5.6 °C 30.17 in /  1021.6 hPa North 8.1 mph /  13 km/h 12.0 mph /  19.3 km/h 94 % 0.00 in /  0 mm
19:12 43.7 °F /  6.5 °C 42.1 °F /  5.6 °C 30.18 in /  1021.9 hPa NNE 8.1 mph /  13 km/h 9.0 mph /  14.5 km/h 94 % 0.00 in /  0 mm
19:17 43.7 °F /  6.5 °C 42.1 °F /  5.6 °C 30.18 in /  1021.9 hPa NNE 7.3 mph /  11.7 km/h 11.5 mph /  18.5 km/h 94 % 0.00 in /  0 mm
19:22 43.7 °F /  6.5 °C 42.1 °F /  5.6 °C 30.18 in /  1021.9 hPa NNE 11.5 mph /  18.5 km/h 19.6 mph /  31.5 km/h 94 % 0.00 in /  0 mm
19:27 43.6 °F /  6.4 °C 42.0 °F /  5.6 °C 30.17 in /  1021.6 hPa NNE 6.9 mph /  11.1 km/h 11.5 mph /  18.5 km/h 94 % 0.01 in /  0.25 mm
19:32 43.6 °F /  6.4 °C 42.0 °F /  5.6 °C 30.17 in /  1021.6 hPa NE 8.1 mph /  13 km/h 13.8 mph /  22.2 km/h 94 % 0.01 in /  0.25 mm
19:37 43.4 °F /  6.3 °C 41.8 °F /  5.4 °C 30.17 in /  1021.6 hPa NNE 10.3 mph /  16.6 km/h 15.0 mph /  24.1 km/h 94 % 0.01 in /  0.25 mm
19:42 43.3 °F /  6.3 °C 41.7 °F /  5.4 °C 30.16 in /  1021.2 hPa NNE 7.9 mph /  12.7 km/h 13.0 mph /  20.9 km/h 94 % 0.01 in /  0.25 mm
19:47 43.2 °F /  6.2 °C 41.6 °F /  5.3 °C 30.16 in /  1021.2 hPa North 9.0 mph /  14.5 km/h 15.0 mph /  24.1 km/h 94 % 0.01 in /  0.25 mm
19:52 43.1 °F /  6.2 °C 41.5 °F /  5.3 °C 30.16 in /  1021.2 hPa East 6.7 mph /  10.8 km/h 10.4 mph /  16.7 km/h 94 % 0.01 in /  0.25 mm
19:57 43.1 °F /  6.2 °C 41.5 °F /  5.3 °C 30.17 in /  1021.6 hPa NNE 8.8 mph /  14.2 km/h 12.0 mph /  19.3 km/h 94 % 0.01 in /  0.25 mm
20:07 42.9 °F /  6.1 °C 41.3 °F /  5.2 °C 30.17 in /  1021.6 hPa NE 7.7 mph /  12.4 km/h 10.4 mph /  16.7 km/h 94 % 0.01 in /  0.25 mm
20:13 42.8 °F /  6 °C 41.2 °F /  5.1 °C 30.18 in /  1021.9 hPa NNE 5.7 mph /  9.2 km/h 10.4 mph /  16.7 km/h 94 % 0.01 in /  0.25 mm
20:18 42.7 °F /  5.9 °C 41.1 °F /  5.1 °C 30.18 in /  1021.9 hPa NNE 8.3 mph /  13.4 km/h 11.5 mph /  18.5 km/h 94 % 0.02 in /  0.51 mm
20:28 42.5 °F /  5.8 °C 40.9 °F /  4.9 °C 30.18 in /  1021.9 hPa North 11.6 mph /  18.7 km/h 19.6 mph /  31.5 km/h 94 % 0.01 in /  0.25 mm
20:33 42.5 °F /  5.8 °C 41.2 °F /  5.1 °C 30.18 in /  1021.9 hPa NNE 10.4 mph /  16.7 km/h 15.0 mph /  24.1 km/h 95 % 0.01 in /  0.25 mm
20:38 42.5 °F /  5.8 °C 41.2 °F /  5.1 °C 30.18 in /  1021.9 hPa NNE 11.3 mph /  18.2 km/h 18.0 mph /  29 km/h 95 % 0.01 in /  0.25 mm
20:43 42.3 °F /  5.7 °C 40.7 °F /  4.8 °C 30.18 in /  1021.9 hPa North 9.1 mph /  14.6 km/h 16.1 mph /  25.9 km/h 94 % 0.01 in /  0.25 mm
20:48 42.3 °F /  5.7 °C 40.7 °F /  4.8 °C 30.18 in /  1021.9 hPa NE 11.4 mph /  18.3 km/h 16.1 mph /  25.9 km/h 94 % 0.01 in /  0.25 mm
20:53 42.2 °F /  5.7 °C 40.9 °F /  4.9 °C 30.18 in /  1021.9 hPa North 8.2 mph /  13.2 km/h 10.4 mph /  16.7 km/h 95 % 0.01 in /  0.25 mm
20:58 42.2 °F /  5.7 °C 40.9 °F /  4.9 °C 30.18 in /  1021.9 hPa NNE 9.8 mph /  15.8 km/h 18.4 mph /  29.6 km/h 95 % 0.01 in /  0.25 mm
21:03 42.2 °F /  5.7 °C 40.9 °F /  4.9 °C 30.18 in /  1021.9 hPa NNE 5.4 mph /  8.7 km/h 11.5 mph /  18.5 km/h 95 % 0.01 in /  0.25 mm
21:08 42.3 °F /  5.7 °C 41.0 °F /  5 °C 30.18 in /  1021.9 hPa NE 7.3 mph /  11.7 km/h 11.5 mph /  18.5 km/h 95 % 0.02 in /  0.51 mm
21:13 42.4 °F /  5.8 °C 41.1 °F /  5.1 °C 30.18 in /  1021.9 hPa North 8.5 mph /  13.7 km/h 17.3 mph /  27.8 km/h 95 % 0.02 in /  0.51 mm
21:18 42.5 °F /  5.8 °C 41.2 °F /  5.1 °C 30.18 in /  1021.9 hPa NNE 5.4 mph /  8.7 km/h 12.7 mph /  20.4 km/h 95 % 0.01 in /  0.25 mm
21:23 42.5 °F /  5.8 °C 41.4 °F /  5.2 °C 30.17 in /  1021.6 hPa North 9.3 mph /  15 km/h 17.3 mph /  27.8 km/h 96 % 0.01 in /  0.25 mm
21:28 42.6 °F /  5.9 °C 41.5 °F /  5.3 °C 30.17 in /  1021.6 hPa NNE 8.1 mph /  13 km/h 13.8 mph /  22.2 km/h 96 % 0.01 in /  0.25 mm
21:34 42.6 °F /  5.9 °C 41.5 °F /  5.3 °C 30.17 in /  1021.6 hPa NNE 8.0 mph /  12.9 km/h 15.0 mph /  24.1 km/h 96 % 0.01 in /  0.25 mm
21:39 42.7 °F /  5.9 °C 41.6 °F /  5.3 °C 30.17 in /  1021.6 hPa NNE 9.2 mph /  14.8 km/h 16.0 mph /  25.7 km/h 96 % 0.01 in /  0.25 mm
21:44 42.7 °F /  5.9 °C 41.6 °F /  5.3 °C 30.15 in /  1020.9 hPa ENE 8.3 mph /  13.4 km/h 18.4 mph /  29.6 km/h 96 % 0.01 in /  0.25 mm
21:49 42.7 °F /  5.9 °C 41.6 °F /  5.3 °C 30.15 in /  1020.9 hPa NNE 7.5 mph /  12.1 km/h 11.5 mph /  18.5 km/h 96 % 0.01 in /  0.25 mm
21:54 42.8 °F /  6 °C 41.7 °F /  5.4 °C 30.15 in /  1020.9 hPa North 7.9 mph /  12.7 km/h 15.0 mph /  24.1 km/h 96 % 0.02 in /  0.51 mm
21:59 42.8 °F /  6 °C 41.7 °F /  5.4 °C 30.15 in /  1020.9 hPa NE 8.9 mph /  14.3 km/h 12.7 mph /  20.4 km/h 96 % 0.02 in /  0.51 mm
22:04 42.8 °F /  6 °C 41.7 °F /  5.4 °C 30.15 in /  1020.9 hPa NNE 7.4 mph /  11.9 km/h 11.5 mph /  18.5 km/h 96 % 0.01 in /  0.25 mm
22:09 42.9 °F /  6.1 °C 41.8 °F /  5.4 °C 30.15 in /  1020.9 hPa North 6.2 mph /  10 km/h 11.5 mph /  18.5 km/h 96 % 0.01 in /  0.25 mm
22:14 42.9 °F /  6.1 °C 41.8 °F /  5.4 °C 30.15 in /  1020.9 hPa NNE 8.7 mph /  14 km/h 19.6 mph /  31.5 km/h 96 % 0.01 in /  0.25 mm
22:19 42.9 °F /  6.1 °C 41.8 °F /  5.4 °C 29.92 in /  1013.1 hPa North 10.0 mph /  16.1 km/h 19.6 mph /  31.5 km/h 96 % 0.01 in /  0.25 mm
22:23 42.9 °F /  6.1 °C 41.8 °F /  5.4 °C 30.14 in /  1020.5 hPa NE 5.4 mph /  8.7 km/h 11.5 mph /  18.5 km/h 96 % 0.01 in /  0.25 mm
22:28 42.9 °F /  6.1 °C 41.8 °F /  5.4 °C 30.14 in /  1020.5 hPa NNE 8.6 mph /  13.8 km/h 13.8 mph /  22.2 km/h 96 % 0.01 in /  0.25 mm
22:33 42.8 °F /  6 °C 41.7 °F /  5.4 °C 30.14 in /  1020.5 hPa NNE 7.6 mph /  12.2 km/h 15.0 mph /  24.1 km/h 96 % 0.01 in /  0.25 mm
22:38 42.8 °F /  6 °C 41.7 °F /  5.4 °C 30.14 in /  1020.5 hPa NE 7.4 mph /  11.9 km/h 19.6 mph /  31.5 km/h 96 % 0.02 in /  0.51 mm
22:43 42.7 °F /  5.9 °C 41.6 °F /  5.3 °C 30.14 in /  1020.5 hPa NNE 11.7 mph /  18.8 km/h 17.3 mph /  27.8 km/h 96 % 0.02 in /  0.51 mm
22:48 42.6 °F /  5.9 °C 41.5 °F /  5.3 °C 30.15 in /  1020.9 hPa NNE 9.1 mph /  14.6 km/h 13.8 mph /  22.2 km/h 96 % 0.02 in /  0.51 mm
22:53 42.4 °F /  5.8 °C 41.3 °F /  5.2 °C 30.14 in /  1020.5 hPa ENE 10.8 mph /  17.4 km/h 16.1 mph /  25.9 km/h 96 % 0.01 in /  0.25 mm
22:58 42.4 °F /  5.8 °C 41.3 °F /  5.2 °C 30.15 in /  1020.9 hPa ENE 8.5 mph /  13.7 km/h 13.8 mph /  22.2 km/h 96 % 0.01 in /  0.25 mm
23:03 42.3 °F /  5.7 °C 41.2 °F /  5.1 °C 30.15 in /  1020.9 hPa NE 5.4 mph /  8.7 km/h 18.4 mph /  29.6 km/h 96 % 0.01 in /  0.25 mm
23:08 42.3 °F /  5.7 °C 41.2 °F /  5.1 °C 30.15 in /  1020.9 hPa East 4.1 mph /  6.6 km/h 9.2 mph /  14.8 km/h 96 % 0.01 in /  0.25 mm
23:13 42.3 °F /  5.7 °C 41.2 °F /  5.1 °C 30.15 in /  1020.9 hPa ENE 6.7 mph /  10.8 km/h 11.5 mph /  18.5 km/h 96 % 0.01 in /  0.25 mm
23:18 42.3 °F /  5.7 °C 41.2 °F /  5.1 °C 30.15 in /  1020.9 hPa NE 5.9 mph /  9.5 km/h 9.0 mph /  14.5 km/h 96 % 0.02 in /  0.51 mm
23:23 42.3 °F /  5.7 °C 41.2 °F /  5.1 °C 30.15 in /  1020.9 hPa East 6.5 mph /  10.5 km/h 11.5 mph /  18.5 km/h 96 % 0.02 in /  0.51 mm
23:28 42.3 °F /  5.7 °C 41.2 °F /  5.1 °C 30.15 in /  1020.9 hPa East 3.9 mph /  6.3 km/h 11.5 mph /  18.5 km/h 96 % 0.02 in /  0.51 mm
23:33 42.4 °F /  5.8 °C 41.3 °F /  5.2 °C 30.15 in /  1020.9 hPa NNE 6.1 mph /  9.8 km/h 10.4 mph /  16.7 km/h 96 % 0.02 in /  0.51 mm
23:38 42.3 °F /  5.7 °C 41.2 °F /  5.1 °C 30.15 in /  1020.9 hPa NNE 4.5 mph /  7.2 km/h 9.2 mph /  14.8 km/h 96 % 0.01 in /  0.25 mm
23:43 42.3 °F /  5.7 °C 41.2 °F /  5.1 °C 30.15 in /  1020.9 hPa ENE 7.8 mph /  12.6 km/h 11.5 mph /  18.5 km/h 96 % 0.01 in /  0.25 mm
23:49 42.3 °F /  5.7 °C 41.2 °F /  5.1 °C 30.15 in /  1020.9 hPa ENE 5.2 mph /  8.4 km/h 7.0 mph /  11.3 km/h 96 % 0.01 in /  0.25 mm
23:54 42.4 °F /  5.8 °C 41.3 °F /  5.2 °C 30.15 in /  1020.9 hPa ENE 3.8 mph /  6.1 km/h 10.4 mph /  16.7 km/h 96 % 0.01 in /  0.25 mm
23:59 42.4 °F /  5.8 °C 41.3 °F /  5.2 °C 30.15 in /  1020.9 hPa ENE 6.1 mph /  9.8 km/h 13.8 mph /  22.2 km/h 96 % 0.01 in /  0.25 mm
Crab Meadow Weather
Compliments of Weather Underground - 3 mb

Script developed by  Jim McMurry - jmcmurry@mwt.net Adapted for the template by  Wim van der Kuil - Leuven-Template.eu

Recycling: Americans use 2,500,000 plastic bottles every hour! Most of them are thrown away!